sensor_id;sensor_type;location;lat;lon;timestamp;P1;durP1;ratioP1;P2;durP2;ratioP2
43813;SDS011;29669;55.706;37.656;2023-04-26T00:00:47;6.75;;;4.88;;
43813;SDS011;29669;55.706;37.656;2023-04-26T00:03:15;8.43;;;5.05;;
43813;SDS011;29669;55.706;37.656;2023-04-26T00:05:43;6.78;;;4.00;;
43813;SDS011;29669;55.706;37.656;2023-04-26T00:08:12;4.72;;;3.40;;
43813;SDS011;29669;55.706;37.656;2023-04-26T00:10:40;7.63;;;3.58;;
43813;SDS011;29669;55.706;37.656;2023-04-26T00:13:07;6.65;;;3.40;;
43813;SDS011;29669;55.706;37.656;2023-04-26T00:15:35;3.72;;;2.88;;
43813;SDS011;29669;55.706;37.656;2023-04-26T00:18:04;5.88;;;4.32;;
43813;SDS011;29669;55.706;37.656;2023-04-26T00:20:32;5.43;;;3.88;;
43813;SDS011;29669;55.706;37.656;2023-04-26T00:22:59;4.90;;;4.05;;
43813;SDS011;29669;55.706;37.656;2023-04-26T00:25:28;6.53;;;3.95;;
43813;SDS011;29669;55.706;37.656;2023-04-26T00:27:56;5.18;;;4.13;;
43813;SDS011;29669;55.706;37.656;2023-04-26T00:30:24;4.28;;;3.83;;
43813;SDS011;29669;55.706;37.656;2023-04-26T00:32:52;5.07;;;3.60;;
43813;SDS011;29669;55.706;37.656;2023-04-26T00:35:20;4.25;;;3.80;;
43813;SDS011;29669;55.706;37.656;2023-04-26T00:37:48;6.88;;;4.45;;
43813;SDS011;29669;55.706;37.656;2023-04-26T00:40:16;5.50;;;3.63;;
43813;SDS011;29669;55.706;37.656;2023-04-26T00:42:44;4.75;;;3.60;;
43813;SDS011;29669;55.706;37.656;2023-04-26T00:45:12;5.65;;;3.95;;
43813;SDS011;29669;55.706;37.656;2023-04-26T00:47:39;4.07;;;3.38;;
43813;SDS011;29669;55.706;37.656;2023-04-26T00:50:07;6.80;;;3.92;;
43813;SDS011;29669;55.706;37.656;2023-04-26T00:52:36;5.30;;;3.58;;
43813;SDS011;29669;55.706;37.656;2023-04-26T00:55:06;6.70;;;3.38;;
43813;SDS011;29669;55.706;37.656;2023-04-26T00:57:34;7.00;;;3.60;;
43813;SDS011;29669;55.706;37.656;2023-04-26T01:00:02;5.65;;;4.28;;
43813;SDS011;29669;55.706;37.656;2023-04-26T01:02:32;4.85;;;4.07;;
43813;SDS011;29669;55.706;37.656;2023-04-26T01:05:00;7.05;;;3.22;;
43813;SDS011;29669;55.706;37.656;2023-04-26T01:07:29;5.55;;;3.15;;
43813;SDS011;29669;55.706;37.656;2023-04-26T01:10:02;7.25;;;3.58;;
43813;SDS011;29669;55.706;37.656;2023-04-26T01:12:33;3.97;;;3.58;;
43813;SDS011;29669;55.706;37.656;2023-04-26T01:15:01;5.28;;;3.38;;
43813;SDS011;29669;55.706;37.656;2023-04-26T01:17:31;5.28;;;3.35;;
43813;SDS011;29669;55.706;37.656;2023-04-26T01:19:58;3.28;;;2.80;;
43813;SDS011;29669;55.706;37.656;2023-04-26T01:22:31;5.55;;;3.08;;
43813;SDS011;29669;55.706;37.656;2023-04-26T01:24:59;8.40;;;3.63;;
43813;SDS011;29669;55.706;37.656;2023-04-26T01:27:32;7.65;;;3.95;;
43813;SDS011;29669;55.706;37.656;2023-04-26T01:29:59;5.90;;;3.72;;
43813;SDS011;29669;55.706;37.656;2023-04-26T01:32:27;4.40;;;3.53;;
43813;SDS011;29669;55.706;37.656;2023-04-26T01:34:58;4.72;;;3.53;;
43813;SDS011;29669;55.706;37.656;2023-04-26T01:37:26;5.03;;;4.10;;
43813;SDS011;29669;55.706;37.656;2023-04-26T01:39:58;6.72;;;4.15;;
43813;SDS011;29669;55.706;37.656;2023-04-26T01:42:26;5.78;;;3.97;;
43813;SDS011;29669;55.706;37.656;2023-04-26T01:44:53;5.90;;;4.40;;
43813;SDS011;29669;55.706;37.656;2023-04-26T01:47:21;6.57;;;4.20;;
43813;SDS011;29669;55.706;37.656;2023-04-26T01:49:51;6.43;;;4.78;;
43813;SDS011;29669;55.706;37.656;2023-04-26T01:52:20;6.25;;;4.45;;
43813;SDS011;29669;55.706;37.656;2023-04-26T01:54:48;5.70;;;5.05;;
43813;SDS011;29669;55.706;37.656;2023-04-26T01:57:19;6.30;;;4.35;;
43813;SDS011;29669;55.706;37.656;2023-04-26T01:59:47;5.32;;;4.40;;
43813;SDS011;29669;55.706;37.656;2023-04-26T02:02:16;7.03;;;3.90;;
43813;SDS011;29669;55.706;37.656;2023-04-26T02:04:44;4.90;;;4.25;;
43813;SDS011;29669;55.706;37.656;2023-04-26T02:07:12;11.73;;;4.78;;
43813;SDS011;29669;55.706;37.656;2023-04-26T02:09:45;6.15;;;4.47;;
43813;SDS011;29669;55.706;37.656;2023-04-26T02:12:13;5.30;;;4.72;;
43813;SDS011;29669;55.706;37.656;2023-04-26T02:14:40;6.18;;;4.88;;
43813;SDS011;29669;55.706;37.656;2023-04-26T02:17:09;6.22;;;4.40;;
43813;SDS011;29669;55.706;37.656;2023-04-26T02:19:37;6.13;;;3.58;;
43813;SDS011;29669;55.706;37.656;2023-04-26T02:22:05;5.97;;;4.03;;
43813;SDS011;29669;55.706;37.656;2023-04-26T02:24:33;9.55;;;4.65;;
43813;SDS011;29669;55.706;37.656;2023-04-26T02:27:01;8.35;;;4.63;;
43813;SDS011;29669;55.706;37.656;2023-04-26T02:29:29;7.05;;;4.75;;
43813;SDS011;29669;55.706;37.656;2023-04-26T02:32:10;6.00;;;4.57;;
43813;SDS011;29669;55.706;37.656;2023-04-26T02:34:38;5.03;;;3.83;;
43813;SDS011;29669;55.706;37.656;2023-04-26T02:37:06;8.80;;;5.13;;
43813;SDS011;29669;55.706;37.656;2023-04-26T02:39:34;9.27;;;5.15;;
43813;SDS011;29669;55.706;37.656;2023-04-26T02:42:02;8.93;;;5.25;;
43813;SDS011;29669;55.706;37.656;2023-04-26T02:44:30;6.75;;;4.35;;
43813;SDS011;29669;55.706;37.656;2023-04-26T02:46:57;6.03;;;5.05;;
43813;SDS011;29669;55.706;37.656;2023-04-26T02:49:25;8.85;;;4.97;;
43813;SDS011;29669;55.706;37.656;2023-04-26T02:51:53;4.05;;;3.53;;
43813;SDS011;29669;55.706;37.656;2023-04-26T02:54:21;5.15;;;4.30;;
43813;SDS011;29669;55.706;37.656;2023-04-26T02:56:48;5.00;;;4.28;;
43813;SDS011;29669;55.706;37.656;2023-04-26T02:59:16;9.13;;;5.75;;
43813;SDS011;29669;55.706;37.656;2023-04-26T03:01:44;10.13;;;5.70;;
43813;SDS011;29669;55.706;37.656;2023-04-26T03:04:12;6.97;;;4.32;;
43813;SDS011;29669;55.706;37.656;2023-04-26T03:06:39;7.57;;;5.03;;
43813;SDS011;29669;55.706;37.656;2023-04-26T03:09:07;7.55;;;4.95;;
43813;SDS011;29669;55.706;37.656;2023-04-26T03:11:35;6.63;;;4.85;;
43813;SDS011;29669;55.706;37.656;2023-04-26T03:14:03;7.60;;;5.10;;
43813;SDS011;29669;55.706;37.656;2023-04-26T03:16:37;6.50;;;4.97;;
43813;SDS011;29669;55.706;37.656;2023-04-26T03:19:07;7.90;;;5.07;;
43813;SDS011;29669;55.706;37.656;2023-04-26T03:21:37;6.47;;;4.57;;
43813;SDS011;29669;55.706;37.656;2023-04-26T03:24:05;8.40;;;4.82;;
43813;SDS011;29669;55.706;37.656;2023-04-26T03:26:34;7.07;;;4.47;;
43813;SDS011;29669;55.706;37.656;2023-04-26T03:29:01;5.28;;;4.20;;
43813;SDS011;29669;55.706;37.656;2023-04-26T03:31:30;9.20;;;4.80;;
43813;SDS011;29669;55.706;37.656;2023-04-26T03:33:58;8.50;;;4.60;;
43813;SDS011;29669;55.706;37.656;2023-04-26T03:36:26;9.18;;;4.60;;
43813;SDS011;29669;55.706;37.656;2023-04-26T03:38:55;8.68;;;5.88;;
43813;SDS011;29669;55.706;37.656;2023-04-26T03:41:23;9.73;;;5.63;;
43813;SDS011;29669;55.706;37.656;2023-04-26T03:43:53;8.35;;;5.53;;
43813;SDS011;29669;55.706;37.656;2023-04-26T03:46:20;8.32;;;5.60;;
43813;SDS011;29669;55.706;37.656;2023-04-26T03:48:48;0.45;;;0.45;;
43813;SDS011;29669;55.706;37.656;2023-04-26T03:51:16;0.38;;;0.38;;
43813;SDS011;29669;55.706;37.656;2023-04-26T03:53:44;0.32;;;0.32;;
43813;SDS011;29669;55.706;37.656;2023-04-26T03:56:15;0.40;;;0.40;;
43813;SDS011;29669;55.706;37.656;2023-04-26T03:58:43;0.30;;;0.30;;
43813;SDS011;29669;55.706;37.656;2023-04-26T04:01:11;0.35;;;0.35;;
43813;SDS011;29669;55.706;37.656;2023-04-26T04:03:39;0.80;;;0.80;;
43813;SDS011;29669;55.706;37.656;2023-04-26T04:06:08;2.05;;;1.20;;
43813;SDS011;29669;55.706;37.656;2023-04-26T04:08:36;0.60;;;0.60;;
43813;SDS011;29669;55.706;37.656;2023-04-26T04:11:04;0.40;;;0.40;;
43813;SDS011;29669;55.706;37.656;2023-04-26T04:13:35;0.73;;;0.73;;
43813;SDS011;29669;55.706;37.656;2023-04-26T04:16:03;1.95;;;0.65;;
43813;SDS011;29669;55.706;37.656;2023-04-26T04:18:31;0.65;;;0.65;;
43813;SDS011;29669;55.706;37.656;2023-04-26T04:20:59;0.73;;;0.73;;
43813;SDS011;29669;55.706;37.656;2023-04-26T04:23:27;0.75;;;0.70;;
43813;SDS011;29669;55.706;37.656;2023-04-26T04:25:55;0.85;;;0.68;;
43813;SDS011;29669;55.706;37.656;2023-04-26T04:28:23;0.40;;;0.40;;
43813;SDS011;29669;55.706;37.656;2023-04-26T04:30:50;0.40;;;0.40;;
43813;SDS011;29669;55.706;37.656;2023-04-26T04:33:18;0.40;;;0.40;;
43813;SDS011;29669;55.706;37.656;2023-04-26T04:35:46;1.45;;;0.68;;
43813;SDS011;29669;55.706;37.656;2023-04-26T04:38:16;0.60;;;0.60;;
43813;SDS011;29669;55.706;37.656;2023-04-26T04:40:48;0.30;;;0.30;;
43813;SDS011;29669;55.706;37.656;2023-04-26T04:43:17;0.60;;;0.60;;
43813;SDS011;29669;55.706;37.656;2023-04-26T04:45:46;0.60;;;0.60;;
43813;SDS011;29669;55.706;37.656;2023-04-26T04:48:15;0.30;;;0.30;;
43813;SDS011;29669;55.706;37.656;2023-04-26T04:50:45;0.30;;;0.30;;
43813;SDS011;29669;55.706;37.656;2023-04-26T04:53:14;0.28;;;0.28;;
43813;SDS011;29669;55.706;37.656;2023-04-26T04:55:42;0.63;;;0.63;;
43813;SDS011;29669;55.706;37.656;2023-04-26T04:58:12;0.75;;;0.63;;
43813;SDS011;29669;55.706;37.656;2023-04-26T05:00:41;0.30;;;0.30;;
43813;SDS011;29669;55.706;37.656;2023-04-26T05:03:23;0.55;;;0.55;;
43813;SDS011;29669;55.706;37.656;2023-04-26T05:05:51;0.35;;;0.35;;
43813;SDS011;29669;55.706;37.656;2023-04-26T05:08:18;0.63;;;0.63;;
43813;SDS011;29669;55.706;37.656;2023-04-26T05:10:46;0.30;;;0.30;;
43813;SDS011;29669;55.706;37.656;2023-04-26T05:13:13;0.30;;;0.30;;
43813;SDS011;29669;55.706;37.656;2023-04-26T05:15:41;0.30;;;0.30;;
43813;SDS011;29669;55.706;37.656;2023-04-26T05:18:09;0.68;;;0.68;;
43813;SDS011;29669;55.706;37.656;2023-04-26T05:20:37;0.30;;;0.30;;
43813;SDS011;29669;55.706;37.656;2023-04-26T05:23:05;0.43;;;0.43;;
43813;SDS011;29669;55.706;37.656;2023-04-26T05:25:35;0.30;;;0.30;;
43813;SDS011;29669;55.706;37.656;2023-04-26T05:28:20;0.50;;;0.50;;
43813;SDS011;29669;55.706;37.656;2023-04-26T05:31:14;0.30;;;0.30;;
43813;SDS011;29669;55.706;37.656;2023-04-26T05:33:59;0.43;;;0.43;;
43813;SDS011;29669;55.706;37.656;2023-04-26T05:36:38;0.47;;;0.47;;
43813;SDS011;29669;55.706;37.656;2023-04-26T05:39:06;0.63;;;0.63;;
43813;SDS011;29669;55.706;37.656;2023-04-26T05:41:34;0.30;;;0.30;;
43813;SDS011;29669;55.706;37.656;2023-04-26T05:44:04;0.30;;;0.30;;
43813;SDS011;29669;55.706;37.656;2023-04-26T05:46:35;0.30;;;0.30;;
43813;SDS011;29669;55.706;37.656;2023-04-26T05:49:03;0.20;;;0.20;;
43813;SDS011;29669;55.706;37.656;2023-04-26T05:51:31;0.30;;;0.30;;
43813;SDS011;29669;55.706;37.656;2023-04-26T05:53:58;0.30;;;0.30;;
43813;SDS011;29669;55.706;37.656;2023-04-26T05:56:27;0.45;;;0.45;;
43813;SDS011;29669;55.706;37.656;2023-04-26T05:58:56;2.05;;;1.20;;
43813;SDS011;29669;55.706;37.656;2023-04-26T06:01:24;0.40;;;0.40;;
43813;SDS011;29669;55.706;37.656;2023-04-26T06:03:52;4.05;;;0.47;;
43813;SDS011;29669;55.706;37.656;2023-04-26T06:06:26;0.40;;;0.40;;
43813;SDS011;29669;55.706;37.656;2023-04-26T06:08:54;0.38;;;0.38;;
43813;SDS011;29669;55.706;37.656;2023-04-26T06:11:23;0.55;;;0.55;;
43813;SDS011;29669;55.706;37.656;2023-04-26T06:13:51;0.93;;;0.93;;
43813;SDS011;29669;55.706;37.656;2023-04-26T06:16:21;0.75;;;0.75;;
43813;SDS011;29669;55.706;37.656;2023-04-26T06:18:49;0.40;;;0.40;;
43813;SDS011;29669;55.706;37.656;2023-04-26T06:21:17;0.45;;;0.45;;
43813;SDS011;29669;55.706;37.656;2023-04-26T06:23:45;0.30;;;0.30;;
43813;SDS011;29669;55.706;37.656;2023-04-26T06:26:15;0.40;;;0.40;;
43813;SDS011;29669;55.706;37.656;2023-04-26T06:28:44;0.93;;;0.93;;
43813;SDS011;29669;55.706;37.656;2023-04-26T06:31:13;0.35;;;0.35;;
43813;SDS011;29669;55.706;37.656;2023-04-26T06:33:47;0.30;;;0.30;;
43813;SDS011;29669;55.706;37.656;2023-04-26T06:36:17;0.40;;;0.40;;
43813;SDS011;29669;55.706;37.656;2023-04-26T06:38:49;0.40;;;0.40;;
43813;SDS011;29669;55.706;37.656;2023-04-26T06:42:01;0.30;;;0.30;;
43813;SDS011;29669;55.706;37.656;2023-04-26T06:45:16;0.30;;;0.30;;
43813;SDS011;29669;55.706;37.656;2023-04-26T06:47:49;0.43;;;0.43;;
43813;SDS011;29669;55.706;37.656;2023-04-26T06:50:23;0.40;;;0.40;;
43813;SDS011;29669;55.706;37.656;2023-04-26T06:52:51;0.30;;;0.30;;
43813;SDS011;29669;55.706;37.656;2023-04-26T06:55:20;0.85;;;0.85;;
43813;SDS011;29669;55.706;37.656;2023-04-26T06:57:48;0.50;;;0.50;;
43813;SDS011;29669;55.706;37.656;2023-04-26T07:00:25;0.57;;;0.57;;
43813;SDS011;29669;55.706;37.656;2023-04-26T07:02:54;0.50;;;0.50;;
43813;SDS011;29669;55.706;37.656;2023-04-26T07:05:22;0.30;;;0.30;;
43813;SDS011;29669;55.706;37.656;2023-04-26T07:07:50;0.75;;;0.75;;
43813;SDS011;29669;55.706;37.656;2023-04-26T07:10:24;0.35;;;0.35;;
43813;SDS011;29669;55.706;37.656;2023-04-26T07:12:54;0.30;;;0.30;;
43813;SDS011;29669;55.706;37.656;2023-04-26T07:15:22;0.55;;;0.55;;
43813;SDS011;29669;55.706;37.656;2023-04-26T07:17:50;0.40;;;0.40;;
43813;SDS011;29669;55.706;37.656;2023-04-26T07:20:18;0.60;;;0.60;;
43813;SDS011;29669;55.706;37.656;2023-04-26T07:22:49;0.57;;;0.57;;
43813;SDS011;29669;55.706;37.656;2023-04-26T07:25:17;0.57;;;0.57;;
43813;SDS011;29669;55.706;37.656;2023-04-26T07:27:45;0.52;;;0.52;;
43813;SDS011;29669;55.706;37.656;2023-04-26T07:30:13;0.40;;;0.40;;
43813;SDS011;29669;55.706;37.656;2023-04-26T07:32:41;0.40;;;0.40;;
43813;SDS011;29669;55.706;37.656;2023-04-26T07:35:09;0.30;;;0.30;;
43813;SDS011;29669;55.706;37.656;2023-04-26T07:37:42;0.50;;;0.50;;
43813;SDS011;29669;55.706;37.656;2023-04-26T07:40:10;0.50;;;0.50;;
43813;SDS011;29669;55.706;37.656;2023-04-26T07:42:39;0.55;;;0.50;;
43813;SDS011;29669;55.706;37.656;2023-04-26T07:45:07;0.40;;;0.40;;
43813;SDS011;29669;55.706;37.656;2023-04-26T07:47:35;0.30;;;0.30;;
43813;SDS011;29669;55.706;37.656;2023-04-26T07:50:03;0.30;;;0.30;;
43813;SDS011;29669;55.706;37.656;2023-04-26T07:52:32;0.40;;;0.40;;
43813;SDS011;29669;55.706;37.656;2023-04-26T07:55:00;0.40;;;0.40;;
43813;SDS011;29669;55.706;37.656;2023-04-26T07:57:29;0.47;;;0.47;;
43813;SDS011;29669;55.706;37.656;2023-04-26T07:59:59;2.83;;;2.55;;
43813;SDS011;29669;55.706;37.656;2023-04-26T08:02:27;3.50;;;3.08;;
43813;SDS011;29669;55.706;37.656;2023-04-26T08:05:09;3.60;;;2.97;;
43813;SDS011;29669;55.706;37.656;2023-04-26T08:07:38;3.67;;;3.03;;
43813;SDS011;29669;55.706;37.656;2023-04-26T08:10:09;3.30;;;2.88;;
43813;SDS011;29669;55.706;37.656;2023-04-26T08:12:37;2.72;;;2.53;;
43813;SDS011;29669;55.706;37.656;2023-04-26T08:15:05;7.50;;;2.78;;
43813;SDS011;29669;55.706;37.656;2023-04-26T08:17:33;4.55;;;2.83;;
43813;SDS011;29669;55.706;37.656;2023-04-26T08:20:01;7.28;;;4.65;;
43813;SDS011;29669;55.706;37.656;2023-04-26T08:22:32;5.13;;;3.08;;
43813;SDS011;29669;55.706;37.656;2023-04-26T08:24:59;2.75;;;2.30;;
43813;SDS011;29669;55.706;37.656;2023-04-26T08:27:29;6.30;;;2.63;;
43813;SDS011;29669;55.706;37.656;2023-04-26T08:29:58;7.25;;;3.20;;
43813;SDS011;29669;55.706;37.656;2023-04-26T08:32:26;4.80;;;3.47;;
43813;SDS011;29669;55.706;37.656;2023-04-26T08:34:54;3.28;;;2.78;;
43813;SDS011;29669;55.706;37.656;2023-04-26T08:37:22;4.80;;;3.50;;
43813;SDS011;29669;55.706;37.656;2023-04-26T08:39:49;5.22;;;3.60;;
43813;SDS011;29669;55.706;37.656;2023-04-26T08:42:17;4.22;;;3.80;;
43813;SDS011;29669;55.706;37.656;2023-04-26T08:44:47;4.40;;;3.55;;
43813;SDS011;29669;55.706;37.656;2023-04-26T08:47:17;11.13;;;5.75;;
43813;SDS011;29669;55.706;37.656;2023-04-26T08:49:58;5.47;;;3.38;;
43813;SDS011;29669;55.706;37.656;2023-04-26T08:52:32;5.22;;;3.30;;
43813;SDS011;29669;55.706;37.656;2023-04-26T08:55:03;6.53;;;4.15;;
43813;SDS011;29669;55.706;37.656;2023-04-26T08:57:32;4.15;;;3.47;;
43813;SDS011;29669;55.706;37.656;2023-04-26T09:00:03;3.70;;;3.00;;
43813;SDS011;29669;55.706;37.656;2023-04-26T09:02:32;4.00;;;3.10;;
43813;SDS011;29669;55.706;37.656;2023-04-26T09:05:01;6.68;;;3.95;;
43813;SDS011;29669;55.706;37.656;2023-04-26T09:07:31;4.63;;;4.18;;
43813;SDS011;29669;55.706;37.656;2023-04-26T09:10:03;5.78;;;4.13;;
43813;SDS011;29669;55.706;37.656;2023-04-26T09:12:31;6.57;;;3.60;;
43813;SDS011;29669;55.706;37.656;2023-04-26T09:15:00;6.38;;;4.10;;
43813;SDS011;29669;55.706;37.656;2023-04-26T09:17:29;4.30;;;3.78;;
43813;SDS011;29669;55.706;37.656;2023-04-26T09:19:59;4.57;;;3.50;;
43813;SDS011;29669;55.706;37.656;2023-04-26T09:22:33;3.97;;;3.55;;
43813;SDS011;29669;55.706;37.656;2023-04-26T09:25:03;4.10;;;3.70;;
43813;SDS011;29669;55.706;37.656;2023-04-26T09:27:36;4.32;;;3.63;;
43813;SDS011;29669;55.706;37.656;2023-04-26T09:30:11;10.95;;;7.18;;
43813;SDS011;29669;55.706;37.656;2023-04-26T09:33:23;6.28;;;4.82;;
43813;SDS011;29669;55.706;37.656;2023-04-26T09:35:55;5.65;;;4.32;;
43813;SDS011;29669;55.706;37.656;2023-04-26T09:38:41;4.55;;;3.72;;
43813;SDS011;29669;55.706;37.656;2023-04-26T09:41:12;7.80;;;4.93;;
43813;SDS011;29669;55.706;37.656;2023-04-26T09:43:51;5.53;;;4.25;;
43813;SDS011;29669;55.706;37.656;2023-04-26T09:46:22;6.00;;;4.93;;
43813;SDS011;29669;55.706;37.656;2023-04-26T09:49:00;5.80;;;4.50;;
43813;SDS011;29669;55.706;37.656;2023-04-26T09:51:29;5.32;;;4.25;;
43813;SDS011;29669;55.706;37.656;2023-04-26T09:53:58;5.75;;;4.70;;
43813;SDS011;29669;55.706;37.656;2023-04-26T09:56:26;5.30;;;4.32;;
43813;SDS011;29669;55.706;37.656;2023-04-26T09:58:56;5.68;;;5.13;;
43813;SDS011;29669;55.706;37.656;2023-04-26T10:01:26;5.90;;;4.75;;
43813;SDS011;29669;55.706;37.656;2023-04-26T10:04:01;7.88;;;4.60;;
43813;SDS011;29669;55.706;37.656;2023-04-26T10:06:30;7.68;;;5.75;;
43813;SDS011;29669;55.706;37.656;2023-04-26T10:09:00;8.13;;;5.50;;
43813;SDS011;29669;55.706;37.656;2023-04-26T10:11:28;6.68;;;5.45;;
43813;SDS011;29669;55.706;37.656;2023-04-26T10:13:59;6.68;;;5.97;;
43813;SDS011;29669;55.706;37.656;2023-04-26T10:16:26;7.85;;;6.32;;
43813;SDS011;29669;55.706;37.656;2023-04-26T10:19:00;8.23;;;5.43;;
43813;SDS011;29669;55.706;37.656;2023-04-26T10:21:29;12.93;;;6.20;;
43813;SDS011;29669;55.706;37.656;2023-04-26T10:24:01;8.63;;;6.30;;
43813;SDS011;29669;55.706;37.656;2023-04-26T10:30:03;7.25;;;5.50;;
43813;SDS011;29669;55.706;37.656;2023-04-26T10:32:22;6.57;;;5.38;;
43813;SDS011;29669;55.706;37.656;2023-04-26T10:35:09;7.50;;;6.10;;
43813;SDS011;29669;55.706;37.656;2023-04-26T10:40:48;5.65;;;4.80;;
43813;SDS011;29669;55.706;37.656;2023-04-26T10:43:30;9.18;;;5.18;;
43813;SDS011;29669;55.706;37.656;2023-04-26T10:46:08;6.40;;;5.35;;
43813;SDS011;29669;55.706;37.656;2023-04-26T10:55:36;5.57;;;4.80;;
43813;SDS011;29669;55.706;37.656;2023-04-26T10:58:39;5.65;;;4.88;;
43813;SDS011;29669;55.706;37.656;2023-04-26T11:01:16;6.78;;;5.38;;
43813;SDS011;29669;55.706;37.656;2023-04-26T11:04:30;6.72;;;4.72;;
43813;SDS011;29669;55.706;37.656;2023-04-26T11:07:34;8.52;;;4.60;;
43813;SDS011;29669;55.706;37.656;2023-04-26T11:10:25;7.30;;;4.93;;
43813;SDS011;29669;55.706;37.656;2023-04-26T11:13:03;5.00;;;4.40;;
43813;SDS011;29669;55.706;37.656;2023-04-26T11:15:34;3.33;;;3.00;;
43813;SDS011;29669;55.706;37.656;2023-04-26T11:19:09;3.40;;;2.75;;
43813;SDS011;29669;55.706;37.656;2023-04-26T11:21:37;3.47;;;2.92;;
43813;SDS011;29669;55.706;37.656;2023-04-26T11:24:06;3.03;;;2.40;;
43813;SDS011;29669;55.706;37.656;2023-04-26T11:26:34;2.08;;;1.85;;
43813;SDS011;29669;55.706;37.656;2023-04-26T11:29:03;1.92;;;1.83;;
43813;SDS011;29669;55.706;37.656;2023-04-26T11:31:34;1.90;;;1.80;;
43813;SDS011;29669;55.706;37.656;2023-04-26T11:34:03;2.60;;;2.40;;
43813;SDS011;29669;55.706;37.656;2023-04-26T11:36:31;2.50;;;2.00;;
43813;SDS011;29669;55.706;37.656;2023-04-26T11:38:59;2.58;;;2.38;;
43813;SDS011;29669;55.706;37.656;2023-04-26T11:41:28;2.58;;;2.38;;
43813;SDS011;29669;55.706;37.656;2023-04-26T11:44:03;6.20;;;3.20;;
43813;SDS011;29669;55.706;37.656;2023-04-26T11:46:31;3.40;;;2.40;;
43813;SDS011;29669;55.706;37.656;2023-04-26T11:49:02;3.45;;;2.72;;
43813;SDS011;29669;55.706;37.656;2023-04-26T11:51:30;4.45;;;2.42;;
43813;SDS011;29669;55.706;37.656;2023-04-26T11:53:59;2.67;;;2.47;;
43813;SDS011;29669;55.706;37.656;2023-04-26T11:56:28;3.50;;;2.80;;
43813;SDS011;29669;55.706;37.656;2023-04-26T11:58:57;3.72;;;2.88;;
43813;SDS011;29669;55.706;37.656;2023-04-26T12:01:26;2.78;;;2.55;;
43813;SDS011;29669;55.706;37.656;2023-04-26T12:03:59;3.47;;;2.28;;
43813;SDS011;29669;55.706;37.656;2023-04-26T12:06:43;5.40;;;2.80;;
43813;SDS011;29669;55.706;37.656;2023-04-26T12:09:12;4.10;;;2.60;;
43813;SDS011;29669;55.706;37.656;2023-04-26T12:11:40;5.03;;;2.80;;
43813;SDS011;29669;55.706;37.656;2023-04-26T12:14:07;4.05;;;2.85;;
43813;SDS011;29669;55.706;37.656;2023-04-26T12:16:36;3.15;;;2.80;;
43813;SDS011;29669;55.706;37.656;2023-04-26T12:19:04;5.45;;;4.55;;
43813;SDS011;29669;55.706;37.656;2023-04-26T12:21:41;3.85;;;2.70;;
43813;SDS011;29669;55.706;37.656;2023-04-26T12:24:23;3.10;;;2.80;;
43813;SDS011;29669;55.706;37.656;2023-04-26T12:26:57;2.75;;;2.25;;
43813;SDS011;29669;55.706;37.656;2023-04-26T12:29:27;2.58;;;2.38;;
43813;SDS011;29669;55.706;37.656;2023-04-26T12:31:57;3.72;;;2.65;;
43813;SDS011;29669;55.706;37.656;2023-04-26T12:34:28;4.93;;;2.80;;
43813;SDS011;29669;55.706;37.656;2023-04-26T12:36:56;2.97;;;2.47;;
43813;SDS011;29669;55.706;37.656;2023-04-26T12:39:24;4.30;;;2.92;;
43813;SDS011;29669;55.706;37.656;2023-04-26T12:41:52;3.10;;;2.47;;
43813;SDS011;29669;55.706;37.656;2023-04-26T12:44:22;5.72;;;2.95;;
43813;SDS011;29669;55.706;37.656;2023-04-26T12:46:49;2.97;;;2.35;;
43813;SDS011;29669;55.706;37.656;2023-04-26T12:49:17;3.05;;;2.70;;
43813;SDS011;29669;55.706;37.656;2023-04-26T12:51:45;6.22;;;2.97;;
43813;SDS011;29669;55.706;37.656;2023-04-26T12:54:13;3.92;;;2.50;;
43813;SDS011;29669;55.706;37.656;2023-04-26T12:56:41;3.22;;;2.55;;
43813;SDS011;29669;55.706;37.656;2023-04-26T12:59:10;2.85;;;2.47;;
43813;SDS011;29669;55.706;37.656;2023-04-26T13:01:38;5.82;;;2.60;;
43813;SDS011;29669;55.706;37.656;2023-04-26T13:04:05;2.63;;;2.17;;
43813;SDS011;29669;55.706;37.656;2023-04-26T13:06:34;5.35;;;3.05;;
43813;SDS011;29669;55.706;37.656;2023-04-26T13:09:02;2.88;;;2.58;;
43813;SDS011;29669;55.706;37.656;2023-04-26T13:11:30;5.05;;;3.13;;
43813;SDS011;29669;55.706;37.656;2023-04-26T13:13:58;5.47;;;2.85;;
43813;SDS011;29669;55.706;37.656;2023-04-26T13:16:26;6.63;;;3.08;;
43813;SDS011;29669;55.706;37.656;2023-04-26T13:18:53;3.42;;;2.92;;
43813;SDS011;29669;55.706;37.656;2023-04-26T13:21:22;5.43;;;3.30;;
43813;SDS011;29669;55.706;37.656;2023-04-26T13:23:50;5.18;;;3.33;;
43813;SDS011;29669;55.706;37.656;2023-04-26T13:26:18;5.63;;;3.13;;
43813;SDS011;29669;55.706;37.656;2023-04-26T13:28:46;3.35;;;2.75;;
43813;SDS011;29669;55.706;37.656;2023-04-26T13:31:14;4.40;;;3.33;;
43813;SDS011;29669;55.706;37.656;2023-04-26T13:33:43;3.83;;;2.30;;
43813;SDS011;29669;55.706;37.656;2023-04-26T13:36:14;8.18;;;4.07;;
43813;SDS011;29669;55.706;37.656;2023-04-26T13:38:44;4.07;;;2.85;;
43813;SDS011;29669;55.706;37.656;2023-04-26T13:41:11;4.57;;;2.92;;
43813;SDS011;29669;55.706;37.656;2023-04-26T13:43:40;3.33;;;2.70;;
43813;SDS011;29669;55.706;37.656;2023-04-26T13:46:07;6.00;;;2.90;;
43813;SDS011;29669;55.706;37.656;2023-04-26T13:48:35;4.18;;;3.03;;
43813;SDS011;29669;55.706;37.656;2023-04-26T13:51:04;8.40;;;3.45;;
43813;SDS011;29669;55.706;37.656;2023-04-26T13:53:33;4.22;;;2.60;;
43813;SDS011;29669;55.706;37.656;2023-04-26T13:56:01;3.22;;;2.88;;
43813;SDS011;29669;55.706;37.656;2023-04-26T13:58:29;4.72;;;3.25;;
43813;SDS011;29669;55.706;37.656;2023-04-26T14:00:56;3.70;;;3.13;;
43813;SDS011;29669;55.706;37.656;2023-04-26T14:03:24;5.10;;;3.25;;
43813;SDS011;29669;55.706;37.656;2023-04-26T14:05:53;4.10;;;2.65;;
43813;SDS011;29669;55.706;37.656;2023-04-26T14:08:22;5.70;;;2.85;;
43813;SDS011;29669;55.706;37.656;2023-04-26T14:10:50;7.40;;;2.38;;
43813;SDS011;29669;55.706;37.656;2023-04-26T14:13:18;2.72;;;2.47;;
43813;SDS011;29669;55.706;37.656;2023-04-26T14:15:47;2.33;;;2.17;;
43813;SDS011;29669;55.706;37.656;2023-04-26T14:18:15;5.10;;;2.85;;
43813;SDS011;29669;55.706;37.656;2023-04-26T14:20:44;2.30;;;2.10;;
43813;SDS011;29669;55.706;37.656;2023-04-26T14:23:12;4.00;;;2.83;;
43813;SDS011;29669;55.706;37.656;2023-04-26T14:25:40;3.45;;;2.72;;
43813;SDS011;29669;55.706;37.656;2023-04-26T14:28:08;3.95;;;3.05;;
43813;SDS011;29669;55.706;37.656;2023-04-26T14:30:36;2.78;;;2.50;;
43813;SDS011;29669;55.706;37.656;2023-04-26T14:33:04;3.78;;;2.80;;
43813;SDS011;29669;55.706;37.656;2023-04-26T14:35:32;14.40;;;5.07;;
43813;SDS011;29669;55.706;37.656;2023-04-26T14:38:00;5.35;;;2.75;;
43813;SDS011;29669;55.706;37.656;2023-04-26T14:40:28;4.43;;;2.92;;
43813;SDS011;29669;55.706;37.656;2023-04-26T14:42:56;18.08;;;5.10;;
43813;SDS011;29669;55.706;37.656;2023-04-26T14:45:24;8.32;;;2.85;;
43813;SDS011;29669;55.706;37.656;2023-04-26T14:48:03;3.55;;;2.55;;
43813;SDS011;29669;55.706;37.656;2023-04-26T14:50:31;5.63;;;3.00;;
43813;SDS011;29669;55.706;37.656;2023-04-26T14:52:58;7.35;;;2.75;;
43813;SDS011;29669;55.706;37.656;2023-04-26T14:55:26;4.30;;;2.47;;
43813;SDS011;29669;55.706;37.656;2023-04-26T14:57:54;5.40;;;2.63;;
43813;SDS011;29669;55.706;37.656;2023-04-26T15:00:22;3.22;;;2.58;;
43813;SDS011;29669;55.706;37.656;2023-04-26T15:02:51;6.68;;;2.70;;
43813;SDS011;29669;55.706;37.656;2023-04-26T15:05:19;6.78;;;2.90;;